sensor_id;sensor_type;location;lat;lon;timestamp;P1;durP1;ratioP1;P2;durP2;ratioP2
77262;SDS011;66373;52.334;4.806;2023-03-14T00:01:10;10.45;;;3.38;;
77262;SDS011;66373;52.334;4.806;2023-03-14T00:03:38;6.38;;;2.72;;
77262;SDS011;66373;52.334;4.806;2023-03-14T00:06:05;9.52;;;3.30;;
77262;SDS011;66373;52.334;4.806;2023-03-14T00:08:33;6.60;;;2.80;;
77262;SDS011;66373;52.334;4.806;2023-03-14T00:11:03;8.48;;;2.95;;
77262;SDS011;66373;52.334;4.806;2023-03-14T00:13:32;8.77;;;2.65;;
77262;SDS011;66373;52.334;4.806;2023-03-14T00:16:03;7.63;;;2.90;;
77262;SDS011;66373;52.334;4.806;2023-03-14T00:18:30;10.13;;;2.65;;
77262;SDS011;66373;52.334;4.806;2023-03-14T00:20:58;9.88;;;2.67;;
77262;SDS011;66373;52.334;4.806;2023-03-14T00:23:28;9.82;;;3.65;;
77262;SDS011;66373;52.334;4.806;2023-03-14T00:25:58;8.13;;;2.50;;
77262;SDS011;66373;52.334;4.806;2023-03-14T00:28:25;5.28;;;2.60;;
77262;SDS011;66373;52.334;4.806;2023-03-14T00:30:54;6.05;;;2.40;;
77262;SDS011;66373;52.334;4.806;2023-03-14T00:33:21;3.97;;;2.00;;
77262;SDS011;66373;52.334;4.806;2023-03-14T00:35:52;5.95;;;2.80;;
77262;SDS011;66373;52.334;4.806;2023-03-14T00:38:20;5.63;;;2.60;;
77262;SDS011;66373;52.334;4.806;2023-03-14T00:40:46;13.25;;;2.80;;
77262;SDS011;66373;52.334;4.806;2023-03-14T00:43:13;5.85;;;2.30;;
77262;SDS011;66373;52.334;4.806;2023-03-14T00:45:40;5.30;;;2.25;;
77262;SDS011;66373;52.334;4.806;2023-03-14T00:48:08;7.93;;;2.75;;
77262;SDS011;66373;52.334;4.806;2023-03-14T00:50:35;6.13;;;2.53;;
77262;SDS011;66373;52.334;4.806;2023-03-14T00:53:02;6.90;;;2.67;;
77262;SDS011;66373;52.334;4.806;2023-03-14T00:55:29;8.55;;;2.47;;
77262;SDS011;66373;52.334;4.806;2023-03-14T00:57:56;5.47;;;2.20;;
77262;SDS011;66373;52.334;4.806;2023-03-14T01:00:23;6.45;;;2.55;;
77262;SDS011;66373;52.334;4.806;2023-03-14T01:02:51;4.28;;;2.20;;
77262;SDS011;66373;52.334;4.806;2023-03-14T01:05:19;8.00;;;2.65;;
77262;SDS011;66373;52.334;4.806;2023-03-14T01:07:48;8.38;;;2.30;;
77262;SDS011;66373;52.334;4.806;2023-03-14T01:10:15;6.85;;;2.10;;
77262;SDS011;66373;52.334;4.806;2023-03-14T01:12:43;6.15;;;2.30;;
77262;SDS011;66373;52.334;4.806;2023-03-14T01:15:09;7.50;;;2.70;;
77262;SDS011;66373;52.334;4.806;2023-03-14T01:17:36;7.78;;;2.35;;
77262;SDS011;66373;52.334;4.806;2023-03-14T01:20:05;2.03;;;1.70;;
77262;SDS011;66373;52.334;4.806;2023-03-14T01:22:35;4.95;;;2.08;;
77262;SDS011;66373;52.334;4.806;2023-03-14T01:25:04;6.63;;;2.63;;
77262;SDS011;66373;52.334;4.806;2023-03-14T01:27:32;4.85;;;2.05;;
77262;SDS011;66373;52.334;4.806;2023-03-14T01:29:58;4.93;;;2.10;;
77262;SDS011;66373;52.334;4.806;2023-03-14T01:32:26;5.82;;;2.05;;
77262;SDS011;66373;52.334;4.806;2023-03-14T01:34:52;5.53;;;2.00;;
77262;SDS011;66373;52.334;4.806;2023-03-14T01:37:20;5.55;;;2.33;;
77262;SDS011;66373;52.334;4.806;2023-03-14T01:39:48;9.00;;;2.83;;
77262;SDS011;66373;52.334;4.806;2023-03-14T01:42:16;6.43;;;2.30;;
77262;SDS011;66373;52.334;4.806;2023-03-14T01:44:48;5.95;;;2.13;;
77262;SDS011;66373;52.334;4.806;2023-03-14T01:47:17;5.97;;;1.92;;
77262;SDS011;66373;52.334;4.806;2023-03-14T01:49:45;5.35;;;2.15;;
77262;SDS011;66373;52.334;4.806;2023-03-14T01:52:18;4.40;;;1.95;;
77262;SDS011;66373;52.334;4.806;2023-03-14T01:54:51;7.25;;;2.20;;
77262;SDS011;66373;52.334;4.806;2023-03-14T01:57:23;4.65;;;2.38;;
77262;SDS011;66373;52.334;4.806;2023-03-14T01:59:56;4.13;;;2.40;;
77262;SDS011;66373;52.334;4.806;2023-03-14T02:02:26;5.85;;;2.42;;
77262;SDS011;66373;52.334;4.806;2023-03-14T02:04:54;4.28;;;2.03;;
77262;SDS011;66373;52.334;4.806;2023-03-14T02:07:29;4.57;;;2.13;;
77262;SDS011;66373;52.334;4.806;2023-03-14T02:10:15;7.90;;;2.42;;
77262;SDS011;66373;52.334;4.806;2023-03-14T02:12:46;6.43;;;2.20;;
77262;SDS011;66373;52.334;4.806;2023-03-14T02:15:25;4.25;;;2.22;;
77262;SDS011;66373;52.334;4.806;2023-03-14T02:18:06;4.50;;;2.05;;
77262;SDS011;66373;52.334;4.806;2023-03-14T02:20:47;5.38;;;2.20;;
77262;SDS011;66373;52.334;4.806;2023-03-14T02:23:20;5.75;;;2.22;;
77262;SDS011;66373;52.334;4.806;2023-03-14T02:26:00;5.20;;;2.38;;
77262;SDS011;66373;52.334;4.806;2023-03-14T02:28:32;4.78;;;2.20;;
77262;SDS011;66373;52.334;4.806;2023-03-14T02:31:01;5.95;;;2.20;;
77262;SDS011;66373;52.334;4.806;2023-03-14T02:33:32;8.15;;;2.58;;
77262;SDS011;66373;52.334;4.806;2023-03-14T02:36:00;7.43;;;2.17;;
77262;SDS011;66373;52.334;4.806;2023-03-14T02:38:30;6.38;;;2.42;;
77262;SDS011;66373;52.334;4.806;2023-03-14T02:41:03;7.70;;;2.42;;
77262;SDS011;66373;52.334;4.806;2023-03-14T02:43:36;6.03;;;2.30;;
77262;SDS011;66373;52.334;4.806;2023-03-14T02:46:10;6.80;;;2.28;;
77262;SDS011;66373;52.334;4.806;2023-03-14T02:48:39;7.55;;;2.15;;
77262;SDS011;66373;52.334;4.806;2023-03-14T02:51:11;4.32;;;2.25;;
77262;SDS011;66373;52.334;4.806;2023-03-14T02:53:40;4.15;;;2.25;;
77262;SDS011;66373;52.334;4.806;2023-03-14T02:56:10;3.85;;;1.83;;
77262;SDS011;66373;52.334;4.806;2023-03-14T02:58:39;5.32;;;2.22;;
77262;SDS011;66373;52.334;4.806;2023-03-14T03:01:32;6.20;;;2.47;;
77262;SDS011;66373;52.334;4.806;2023-03-14T03:03:59;7.25;;;2.38;;
77262;SDS011;66373;52.334;4.806;2023-03-14T03:06:26;5.88;;;2.38;;
77262;SDS011;66373;52.334;4.806;2023-03-14T03:08:54;5.25;;;2.03;;
77262;SDS011;66373;52.334;4.806;2023-03-14T03:11:20;5.25;;;1.92;;
77262;SDS011;66373;52.334;4.806;2023-03-14T03:13:49;5.10;;;2.10;;
77262;SDS011;66373;52.334;4.806;2023-03-14T03:16:15;4.75;;;2.10;;
77262;SDS011;66373;52.334;4.806;2023-03-14T03:18:42;5.63;;;2.28;;
77262;SDS011;66373;52.334;4.806;2023-03-14T03:21:09;4.60;;;2.15;;
77262;SDS011;66373;52.334;4.806;2023-03-14T03:23:38;5.70;;;2.20;;
77262;SDS011;66373;52.334;4.806;2023-03-14T03:26:05;4.70;;;2.45;;
77262;SDS011;66373;52.334;4.806;2023-03-14T03:28:32;6.05;;;2.38;;
77262;SDS011;66373;52.334;4.806;2023-03-14T03:31:05;5.35;;;2.20;;
77262;SDS011;66373;52.334;4.806;2023-03-14T03:33:34;2.67;;;1.95;;
77262;SDS011;66373;52.334;4.806;2023-03-14T03:36:02;7.45;;;2.13;;
77262;SDS011;66373;52.334;4.806;2023-03-14T03:38:33;7.28;;;2.50;;
77262;SDS011;66373;52.334;4.806;2023-03-14T03:41:04;7.10;;;2.20;;
77262;SDS011;66373;52.334;4.806;2023-03-14T03:43:33;4.10;;;1.90;;
77262;SDS011;66373;52.334;4.806;2023-03-14T03:46:02;6.93;;;2.22;;
77262;SDS011;66373;52.334;4.806;2023-03-14T03:48:32;4.70;;;2.05;;
77262;SDS011;66373;52.334;4.806;2023-03-14T03:51:03;7.68;;;2.25;;
77262;SDS011;66373;52.334;4.806;2023-03-14T03:53:31;3.05;;;1.73;;
77262;SDS011;66373;52.334;4.806;2023-03-14T03:56:03;6.20;;;2.10;;
77262;SDS011;66373;52.334;4.806;2023-03-14T03:58:32;4.35;;;2.13;;
77262;SDS011;66373;52.334;4.806;2023-03-14T04:00:59;3.80;;;2.05;;
77262;SDS011;66373;52.334;4.806;2023-03-14T04:03:27;5.22;;;2.17;;
77262;SDS011;66373;52.334;4.806;2023-03-14T04:05:59;4.97;;;1.98;;
77262;SDS011;66373;52.334;4.806;2023-03-14T04:08:26;6.22;;;1.83;;
77262;SDS011;66373;52.334;4.806;2023-03-14T04:10:55;3.45;;;1.83;;
77262;SDS011;66373;52.334;4.806;2023-03-14T04:13:35;6.43;;;2.08;;
77262;SDS011;66373;52.334;4.806;2023-03-14T04:16:02;4.13;;;1.98;;
77262;SDS011;66373;52.334;4.806;2023-03-14T04:18:31;4.32;;;1.75;;
77262;SDS011;66373;52.334;4.806;2023-03-14T04:20:58;7.63;;;2.47;;
77262;SDS011;66373;52.334;4.806;2023-03-14T04:23:33;2.60;;;1.73;;
77262;SDS011;66373;52.334;4.806;2023-03-14T04:26:00;5.68;;;2.35;;
77262;SDS011;66373;52.334;4.806;2023-03-14T04:28:28;5.35;;;2.90;;
77262;SDS011;66373;52.334;4.806;2023-03-14T04:30:55;5.95;;;2.38;;
77262;SDS011;66373;52.334;4.806;2023-03-14T04:33:24;3.65;;;2.00;;
77262;SDS011;66373;52.334;4.806;2023-03-14T04:35:54;4.10;;;1.90;;
77262;SDS011;66373;52.334;4.806;2023-03-14T04:38:21;5.53;;;2.17;;
77262;SDS011;66373;52.334;4.806;2023-03-14T04:40:50;5.32;;;2.33;;
77262;SDS011;66373;52.334;4.806;2023-03-14T04:43:20;5.07;;;2.10;;
77262;SDS011;66373;52.334;4.806;2023-03-14T04:45:51;4.45;;;2.00;;
77262;SDS011;66373;52.334;4.806;2023-03-14T04:48:18;4.60;;;2.20;;
77262;SDS011;66373;52.334;4.806;2023-03-14T04:50:46;4.18;;;2.05;;
77262;SDS011;66373;52.334;4.806;2023-03-14T04:53:16;5.13;;;2.20;;
77262;SDS011;66373;52.334;4.806;2023-03-14T04:55:47;3.67;;;1.92;;
77262;SDS011;66373;52.334;4.806;2023-03-14T04:58:14;2.70;;;1.90;;
77262;SDS011;66373;52.334;4.806;2023-03-14T05:00:43;3.42;;;1.80;;
77262;SDS011;66373;52.334;4.806;2023-03-14T05:03:29;3.97;;;1.95;;
77262;SDS011;66373;52.334;4.806;2023-03-14T05:06:13;5.70;;;2.13;;
77262;SDS011;66373;52.334;4.806;2023-03-14T05:08:46;3.88;;;2.20;;
77262;SDS011;66373;52.334;4.806;2023-03-14T05:11:13;5.90;;;1.92;;
77262;SDS011;66373;52.334;4.806;2023-03-14T05:14:00;4.75;;;2.10;;
77262;SDS011;66373;52.334;4.806;2023-03-14T05:16:43;2.60;;;1.98;;
77262;SDS011;66373;52.334;4.806;2023-03-14T05:19:13;4.28;;;1.70;;
77262;SDS011;66373;52.334;4.806;2023-03-14T05:21:55;2.30;;;1.70;;
77262;SDS011;66373;52.334;4.806;2023-03-14T05:24:36;4.78;;;2.08;;
77262;SDS011;66373;52.334;4.806;2023-03-14T05:27:38;4.70;;;2.10;;
77262;SDS011;66373;52.334;4.806;2023-03-14T05:30:24;3.15;;;1.98;;
77262;SDS011;66373;52.334;4.806;2023-03-14T05:33:12;3.05;;;1.83;;
77262;SDS011;66373;52.334;4.806;2023-03-14T05:36:09;5.10;;;2.00;;
77262;SDS011;66373;52.334;4.806;2023-03-14T05:39:00;5.22;;;1.90;;
77262;SDS011;66373;52.334;4.806;2023-03-14T05:41:45;6.20;;;1.88;;
77262;SDS011;66373;52.334;4.806;2023-03-14T05:44:25;3.03;;;1.70;;
77262;SDS011;66373;52.334;4.806;2023-03-14T05:47:18;3.90;;;1.90;;
77262;SDS011;66373;52.334;4.806;2023-03-14T05:49:53;3.05;;;1.88;;
77262;SDS011;66373;52.334;4.806;2023-03-14T05:52:42;4.65;;;2.08;;
77262;SDS011;66373;52.334;4.806;2023-03-14T05:55:38;3.70;;;2.00;;
77262;SDS011;66373;52.334;4.806;2023-03-14T05:58:25;4.35;;;1.60;;
77262;SDS011;66373;52.334;4.806;2023-03-14T06:00:57;2.30;;;2.00;;
77262;SDS011;66373;52.334;4.806;2023-03-14T06:03:40;5.78;;;2.35;;
77262;SDS011;66373;52.334;4.806;2023-03-14T06:06:14;2.83;;;1.52;;
77262;SDS011;66373;52.334;4.806;2023-03-14T06:08:42;3.70;;;1.85;;
77262;SDS011;66373;52.334;4.806;2023-03-14T06:11:10;9.20;;;2.20;;
77262;SDS011;66373;52.334;4.806;2023-03-14T06:13:38;5.50;;;1.92;;
77262;SDS011;66373;52.334;4.806;2023-03-14T06:16:07;5.10;;;2.08;;
77262;SDS011;66373;52.334;4.806;2023-03-14T06:18:35;4.40;;;1.75;;
77262;SDS011;66373;52.334;4.806;2023-03-14T06:21:05;3.15;;;2.17;;
77262;SDS011;66373;52.334;4.806;2023-03-14T06:23:34;4.28;;;2.10;;
77262;SDS011;66373;52.334;4.806;2023-03-14T06:26:02;5.75;;;1.90;;
77262;SDS011;66373;52.334;4.806;2023-03-14T06:28:29;10.48;;;2.05;;
77262;SDS011;66373;52.334;4.806;2023-03-14T06:31:02;9.07;;;1.90;;
77262;SDS011;66373;52.334;4.806;2023-03-14T06:33:35;3.58;;;1.73;;
77262;SDS011;66373;52.334;4.806;2023-03-14T06:36:06;4.20;;;1.90;;
77262;SDS011;66373;52.334;4.806;2023-03-14T06:38:35;8.20;;;2.25;;
77262;SDS011;66373;52.334;4.806;2023-03-14T06:41:03;5.22;;;2.28;;
77262;SDS011;66373;52.334;4.806;2023-03-14T06:43:40;5.65;;;1.67;;
77262;SDS011;66373;52.334;4.806;2023-03-14T06:46:10;2.60;;;1.83;;
77262;SDS011;66373;52.334;4.806;2023-03-14T06:48:39;11.27;;;2.13;;
77262;SDS011;66373;52.334;4.806;2023-03-14T06:51:07;5.15;;;1.95;;
77262;SDS011;66373;52.334;4.806;2023-03-14T06:53:35;8.07;;;1.95;;
77262;SDS011;66373;52.334;4.806;2023-03-14T06:56:02;6.43;;;1.90;;
77262;SDS011;66373;52.334;4.806;2023-03-14T06:58:32;4.13;;;2.00;;
77262;SDS011;66373;52.334;4.806;2023-03-14T07:01:01;6.43;;;2.85;;
77262;SDS011;66373;52.334;4.806;2023-03-14T07:03:37;6.30;;;1.98;;
77262;SDS011;66373;52.334;4.806;2023-03-14T07:06:05;6.75;;;2.20;;
77262;SDS011;66373;52.334;4.806;2023-03-14T07:08:32;9.00;;;2.17;;
77262;SDS011;66373;52.334;4.806;2023-03-14T07:11:00;6.50;;;2.13;;
77262;SDS011;66373;52.334;4.806;2023-03-14T07:13:28;6.40;;;2.25;;
77262;SDS011;66373;52.334;4.806;2023-03-14T07:16:01;11.23;;;2.25;;
77262;SDS011;66373;52.334;4.806;2023-03-14T07:18:28;7.65;;;2.80;;
77262;SDS011;66373;52.334;4.806;2023-03-14T07:20:57;4.13;;;2.20;;
77262;SDS011;66373;52.334;4.806;2023-03-14T07:23:24;12.43;;;2.90;;
77262;SDS011;66373;52.334;4.806;2023-03-14T07:25:52;5.55;;;2.30;;
77262;SDS011;66373;52.334;4.806;2023-03-14T07:28:21;9.75;;;2.60;;
77262;SDS011;66373;52.334;4.806;2023-03-14T07:31:00;13.73;;;3.00;;
77262;SDS011;66373;52.334;4.806;2023-03-14T07:33:32;5.80;;;2.35;;
77262;SDS011;66373;52.334;4.806;2023-03-14T07:36:01;10.30;;;2.72;;
77262;SDS011;66373;52.334;4.806;2023-03-14T07:38:35;8.45;;;2.42;;
77262;SDS011;66373;52.334;4.806;2023-03-14T07:41:31;8.18;;;3.08;;
77262;SDS011;66373;52.334;4.806;2023-03-14T07:44:17;13.27;;;3.05;;
77262;SDS011;66373;52.334;4.806;2023-03-14T07:46:54;6.18;;;3.13;;
77262;SDS011;66373;52.334;4.806;2023-03-14T07:49:23;9.05;;;3.63;;
77262;SDS011;66373;52.334;4.806;2023-03-14T07:51:53;7.28;;;3.40;;
77262;SDS011;66373;52.334;4.806;2023-03-14T07:54:20;10.00;;;3.38;;
77262;SDS011;66373;52.334;4.806;2023-03-14T07:56:48;6.15;;;3.10;;
77262;SDS011;66373;52.334;4.806;2023-03-14T07:59:15;9.15;;;3.63;;
77262;SDS011;66373;52.334;4.806;2023-03-14T08:01:43;9.32;;;3.60;;
77262;SDS011;66373;52.334;4.806;2023-03-14T08:04:11;5.80;;;3.33;;
77262;SDS011;66373;52.334;4.806;2023-03-14T08:06:38;11.48;;;4.45;;
77262;SDS011;66373;52.334;4.806;2023-03-14T08:09:07;5.82;;;3.92;;
77262;SDS011;66373;52.334;4.806;2023-03-14T08:11:34;11.75;;;4.03;;
77262;SDS011;66373;52.334;4.806;2023-03-14T08:14:03;6.47;;;3.42;;
77262;SDS011;66373;52.334;4.806;2023-03-14T08:16:30;11.13;;;4.18;;
77262;SDS011;66373;52.334;4.806;2023-03-14T08:18:58;7.13;;;3.50;;
77262;SDS011;66373;52.334;4.806;2023-03-14T08:21:25;9.18;;;3.42;;
77262;SDS011;66373;52.334;4.806;2023-03-14T08:23:55;9.13;;;3.70;;
77262;SDS011;66373;52.334;4.806;2023-03-14T08:26:24;12.55;;;3.88;;
77262;SDS011;66373;52.334;4.806;2023-03-14T08:28:51;5.78;;;3.72;;
77262;SDS011;66373;52.334;4.806;2023-03-14T08:31:18;6.60;;;3.53;;
77262;SDS011;66373;52.334;4.806;2023-03-14T08:33:46;10.50;;;3.22;;
77262;SDS011;66373;52.334;4.806;2023-03-14T08:36:13;8.00;;;3.80;;
77262;SDS011;66373;52.334;4.806;2023-03-14T08:38:40;7.68;;;3.83;;
77262;SDS011;66373;52.334;4.806;2023-03-14T08:41:08;5.35;;;3.35;;
77262;SDS011;66373;52.334;4.806;2023-03-14T08:43:37;7.68;;;3.45;;
77262;SDS011;66373;52.334;4.806;2023-03-14T08:46:04;7.18;;;3.40;;
77262;SDS011;66373;52.334;4.806;2023-03-14T08:48:32;6.88;;;3.40;;
77262;SDS011;66373;52.334;4.806;2023-03-14T08:51:03;6.25;;;3.10;;
77262;SDS011;66373;52.334;4.806;2023-03-14T08:53:31;7.47;;;3.58;;
77262;SDS011;66373;52.334;4.806;2023-03-14T08:55:58;5.70;;;3.33;;
77262;SDS011;66373;52.334;4.806;2023-03-14T08:58:27;8.05;;;3.20;;
77262;SDS011;66373;52.334;4.806;2023-03-14T09:00:56;5.18;;;3.60;;
77262;SDS011;66373;52.334;4.806;2023-03-14T09:03:23;10.52;;;3.80;;
77262;SDS011;66373;52.334;4.806;2023-03-14T09:05:50;4.97;;;3.22;;
77262;SDS011;66373;52.334;4.806;2023-03-14T09:08:18;4.30;;;3.20;;
77262;SDS011;66373;52.334;4.806;2023-03-14T09:10:45;6.38;;;3.80;;
77262;SDS011;66373;52.334;4.806;2023-03-14T09:13:12;7.60;;;3.47;;
77262;SDS011;66373;52.334;4.806;2023-03-14T09:15:40;7.28;;;3.35;;
77262;SDS011;66373;52.334;4.806;2023-03-14T09:18:09;4.57;;;3.17;;
77262;SDS011;66373;52.334;4.806;2023-03-14T09:20:37;3.70;;;3.03;;
77262;SDS011;66373;52.334;4.806;2023-03-14T09:23:04;5.47;;;3.72;;
77262;SDS011;66373;52.334;4.806;2023-03-14T09:25:31;6.72;;;3.47;;
77262;SDS011;66373;52.334;4.806;2023-03-14T09:27:58;8.32;;;3.50;;
77262;SDS011;66373;52.334;4.806;2023-03-14T09:30:26;7.32;;;3.40;;
77262;SDS011;66373;52.334;4.806;2023-03-14T09:32:53;6.30;;;3.55;;
77262;SDS011;66373;52.334;4.806;2023-03-14T09:35:22;9.23;;;3.60;;
77262;SDS011;66373;52.334;4.806;2023-03-14T09:37:50;9.40;;;3.78;;
77262;SDS011;66373;52.334;4.806;2023-03-14T09:40:18;5.72;;;3.15;;
77262;SDS011;66373;52.334;4.806;2023-03-14T09:42:46;5.72;;;3.40;;
77262;SDS011;66373;52.334;4.806;2023-03-14T09:45:18;9.02;;;3.00;;
77262;SDS011;66373;52.334;4.806;2023-03-14T09:47:52;8.18;;;3.42;;
77262;SDS011;66373;52.334;4.806;2023-03-14T09:50:22;4.10;;;3.05;;
77262;SDS011;66373;52.334;4.806;2023-03-14T09:52:52;6.07;;;3.05;;
77262;SDS011;66373;52.334;4.806;2023-03-14T09:55:25;8.23;;;3.20;;
77262;SDS011;66373;52.334;4.806;2023-03-14T09:57:54;8.10;;;3.03;;
77262;SDS011;66373;52.334;4.806;2023-03-14T10:00:26;5.00;;;3.13;;
77262;SDS011;66373;52.334;4.806;2023-03-14T10:02:56;7.18;;;3.40;;
77262;SDS011;66373;52.334;4.806;2023-03-14T10:05:29;8.23;;;3.47;;
77262;SDS011;66373;52.334;4.806;2023-03-14T10:07:56;6.10;;;3.78;;
77262;SDS011;66373;52.334;4.806;2023-03-14T10:10:25;5.00;;;3.35;;
77262;SDS011;66373;52.334;4.806;2023-03-14T10:12:54;5.65;;;3.28;;
77262;SDS011;66373;52.334;4.806;2023-03-14T10:15:24;7.38;;;3.10;;
77262;SDS011;66373;52.334;4.806;2023-03-14T10:17:53;7.63;;;3.17;;
77262;SDS011;66373;52.334;4.806;2023-03-14T10:20:32;8.52;;;2.83;;
77262;SDS011;66373;52.334;4.806;2023-03-14T10:23:01;6.93;;;3.33;;
77262;SDS011;66373;52.334;4.806;2023-03-14T10:25:31;8.25;;;3.20;;
77262;SDS011;66373;52.334;4.806;2023-03-14T10:27:59;3.58;;;2.70;;
77262;SDS011;66373;52.334;4.806;2023-03-14T10:30:37;4.35;;;2.85;;
77262;SDS011;66373;52.334;4.806;2023-03-14T10:33:10;5.63;;;3.17;;
77262;SDS011;66373;52.334;4.806;2023-03-14T10:35:47;6.57;;;2.75;;
77262;SDS011;66373;52.334;4.806;2023-03-14T10:38:20;8.27;;;2.75;;
77262;SDS011;66373;52.334;4.806;2023-03-14T10:40:51;3.58;;;2.65;;
77262;SDS011;66373;52.334;4.806;2023-03-14T10:43:22;5.90;;;2.90;;
77262;SDS011;66373;52.334;4.806;2023-03-14T10:45:53;9.15;;;3.17;;
77262;SDS011;66373;52.334;4.806;2023-03-14T10:48:24;5.63;;;3.42;;
77262;SDS011;66373;52.334;4.806;2023-03-14T10:51:04;5.13;;;3.10;;
77262;SDS011;66373;52.334;4.806;2023-03-14T10:53:33;5.03;;;2.92;;
77262;SDS011;66373;52.334;4.806;2023-03-14T10:56:05;5.93;;;2.95;;
77262;SDS011;66373;52.334;4.806;2023-03-14T10:58:37;6.22;;;2.97;;
77262;SDS011;66373;52.334;4.806;2023-03-14T11:01:12;7.05;;;3.30;;
77262;SDS011;66373;52.334;4.806;2023-03-14T11:03:51;4.38;;;2.65;;
77262;SDS011;66373;52.334;4.806;2023-03-14T11:06:25;7.72;;;3.15;;
77262;SDS011;66373;52.334;4.806;2023-03-14T11:09:02;5.90;;;2.80;;
77262;SDS011;66373;52.334;4.806;2023-03-14T11:11:37;4.88;;;2.85;;
77262;SDS011;66373;52.334;4.806;2023-03-14T11:14:14;5.30;;;2.92;;
77262;SDS011;66373;52.334;4.806;2023-03-14T11:16:52;6.55;;;2.75;;
77262;SDS011;66373;52.334;4.806;2023-03-14T11:22:23;3.30;;;2.58;;
77262;SDS011;66373;52.334;4.806;2023-03-14T11:25:12;3.00;;;2.60;;
77262;SDS011;66373;52.334;4.806;2023-03-14T11:27:50;9.48;;;3.30;;
77262;SDS011;66373;52.334;4.806;2023-03-14T11:30:23;9.93;;;3.13;;
77262;SDS011;66373;52.334;4.806;2023-03-14T11:33:01;5.05;;;3.03;;
77262;SDS011;66373;52.334;4.806;2023-03-14T11:35:35;7.30;;;3.47;;
77262;SDS011;66373;52.334;4.806;2023-03-14T11:38:12;4.20;;;3.17;;
77262;SDS011;66373;52.334;4.806;2023-03-14T11:40:42;5.03;;;2.92;;
77262;SDS011;66373;52.334;4.806;2023-03-14T11:43:13;4.72;;;2.70;;
77262;SDS011;66373;52.334;4.806;2023-03-14T11:45:45;9.13;;;3.05;;
77262;SDS011;66373;52.334;4.806;2023-03-14T11:48:17;4.50;;;2.97;;
77262;SDS011;66373;52.334;4.806;2023-03-14T11:50:52;5.60;;;3.40;;
77262;SDS011;66373;52.334;4.806;2023-03-14T11:53:25;5.43;;;3.15;;
77262;SDS011;66373;52.334;4.806;2023-03-14T11:56:19;6.85;;;3.28;;
77262;SDS011;66373;52.334;4.806;2023-03-14T11:58:54;4.70;;;3.30;;
77262;SDS011;66373;52.334;4.806;2023-03-14T12:01:27;5.88;;;3.00;;
77262;SDS011;66373;52.334;4.806;2023-03-14T12:04:05;7.10;;;3.22;;
77262;SDS011;66373;52.334;4.806;2023-03-14T12:06:41;4.97;;;3.25;;
77262;SDS011;66373;52.334;4.806;2023-03-14T12:09:15;4.90;;;3.13;;
77262;SDS011;66373;52.334;4.806;2023-03-14T12:14:18;6.60;;;3.17;;
77262;SDS011;66373;52.334;4.806;2023-03-14T12:16:49;4.45;;;3.17;;
77262;SDS011;66373;52.334;4.806;2023-03-14T12:19:26;5.22;;;2.88;;
77262;SDS011;66373;52.334;4.806;2023-03-14T12:21:58;4.80;;;3.25;;
77262;SDS011;66373;52.334;4.806;2023-03-14T12:24:31;5.22;;;3.38;;
77262;SDS011;66373;52.334;4.806;2023-03-14T12:29:28;5.00;;;3.75;;
77262;SDS011;66373;52.334;4.806;2023-03-14T12:34:57;5.63;;;3.53;;
77262;SDS011;66373;52.334;4.806;2023-03-14T12:37:49;8.68;;;3.70;;
77262;SDS011;66373;52.334;4.806;2023-03-14T12:40:24;5.32;;;3.55;;
77262;SDS011;66373;52.334;4.806;2023-03-14T12:42:58;6.20;;;3.33;;
77262;SDS011;66373;52.334;4.806;2023-03-14T12:45:29;6.40;;;3.63;;
77262;SDS011;66373;52.334;4.806;2023-03-14T12:50:45;8.13;;;3.63;;
77262;SDS011;66373;52.334;4.806;2023-03-14T12:56:22;5.22;;;3.35;;
77262;SDS011;66373;52.334;4.806;2023-03-14T12:59:14;6.18;;;3.58;;
77262;SDS011;66373;52.334;4.806;2023-03-14T13:01:55;4.60;;;3.42;;
77262;SDS011;66373;52.334;4.806;2023-03-14T13:04:27;4.65;;;3.58;;
77262;SDS011;66373;52.334;4.806;2023-03-14T13:06:58;4.82;;;3.65;;
77262;SDS011;66373;52.334;4.806;2023-03-14T13:09:45;5.40;;;3.47;;
77262;SDS011;66373;52.334;4.806;2023-03-14T13:12:22;5.50;;;3.10;;
77262;SDS011;66373;52.334;4.806;2023-03-14T13:14:57;5.47;;;3.40;;
77262;SDS011;66373;52.334;4.806;2023-03-14T13:17:27;3.75;;;3.28;;
77262;SDS011;66373;52.334;4.806;2023-03-14T13:19:57;4.80;;;2.95;;
77262;SDS011;66373;52.334;4.806;2023-03-14T13:22:31;5.65;;;3.17;;
77262;SDS011;66373;52.334;4.806;2023-03-14T13:25:03;6.50;;;3.70;;
77262;SDS011;66373;52.334;4.806;2023-03-14T13:27:34;6.25;;;3.55;;
77262;SDS011;66373;52.334;4.806;2023-03-14T13:30:11;5.63;;;3.72;;
77262;SDS011;66373;52.334;4.806;2023-03-14T13:32:43;5.35;;;3.35;;
77262;SDS011;66373;52.334;4.806;2023-03-14T13:35:16;4.93;;;3.70;;
77262;SDS011;66373;52.334;4.806;2023-03-14T13:37:45;6.55;;;3.88;;
77262;SDS011;66373;52.334;4.806;2023-03-14T13:40:20;6.40;;;3.50;;
77262;SDS011;66373;52.334;4.806;2023-03-14T13:43:00;6.68;;;3.45;;
77262;SDS011;66373;52.334;4.806;2023-03-14T13:47:56;6.57;;;3.75;;
77262;SDS011;66373;52.334;4.806;2023-03-14T13:50:24;8.32;;;3.80;;
77262;SDS011;66373;52.334;4.806;2023-03-14T13:52:54;10.35;;;3.95;;
77262;SDS011;66373;52.334;4.806;2023-03-14T13:55:22;5.60;;;3.55;;
77262;SDS011;66373;52.334;4.806;2023-03-14T13:57:51;5.93;;;3.60;;
77262;SDS011;66373;52.334;4.806;2023-03-14T14:00:22;6.82;;;3.65;;
77262;SDS011;66373;52.334;4.806;2023-03-14T14:02:52;8.43;;;3.92;;
77262;SDS011;66373;52.334;4.806;2023-03-14T14:05:20;6.93;;;3.47;;
77262;SDS011;66373;52.334;4.806;2023-03-14T14:07:49;7.55;;;4.28;;
77262;SDS011;66373;52.334;4.806;2023-03-14T14:10:17;7.72;;;4.03;;
77262;SDS011;66373;52.334;4.806;2023-03-14T14:12:46;7.88;;;3.80;;
77262;SDS011;66373;52.334;4.806;2023-03-14T14:15:18;7.45;;;3.65;;
77262;SDS011;66373;52.334;4.806;2023-03-14T14:17:50;5.13;;;3.70;;
77262;SDS011;66373;52.334;4.806;2023-03-14T14:20:21;4.82;;;3.53;;
77262;SDS011;66373;52.334;4.806;2023-03-14T14:22:57;7.25;;;3.83;;
77262;SDS011;66373;52.334;4.806;2023-03-14T14:25:25;5.05;;;3.88;;
77262;SDS011;66373;52.334;4.806;2023-03-14T14:27:53;8.70;;;4.10;;
77262;SDS011;66373;52.334;4.806;2023-03-14T14:30:30;6.55;;;4.20;;
77262;SDS011;66373;52.334;4.806;2023-03-14T14:33:19;6.78;;;4.03;;
77262;SDS011;66373;52.334;4.806;2023-03-14T14:35:52;7.28;;;4.15;;
77262;SDS011;66373;52.334;4.806;2023-03-14T14:38:22;6.10;;;4.35;;
77262;SDS011;66373;52.334;4.806;2023-03-14T14:40:51;7.28;;;4.35;;
77262;SDS011;66373;52.334;4.806;2023-03-14T14:43:22;7.75;;;4.38;;
77262;SDS011;66373;52.334;4.806;2023-03-14T14:45:51;7.30;;;4.35;;
77262;SDS011;66373;52.334;4.806;2023-03-14T14:48:22;6.93;;;3.80;;
77262;SDS011;66373;52.334;4.806;2023-03-14T14:50:55;7.85;;;3.95;;
77262;SDS011;66373;52.334;4.806;2023-03-14T14:53:27;5.30;;;3.85;;
77262;SDS011;66373;52.334;4.806;2023-03-14T14:55:57;7.90;;;4.10;;
77262;SDS011;66373;52.334;4.806;2023-03-14T14:58:27;8.68;;;4.18;;
77262;SDS011;66373;52.334;4.806;2023-03-14T15:00:56;7.03;;;3.90;;
77262;SDS011;66373;52.334;4.806;2023-03-14T15:03:32;5.78;;;3.38;;
77262;SDS011;66373;52.334;4.806;2023-03-14T15:06:01;8.95;;;3.97;;
77262;SDS011;66373;52.334;4.806;2023-03-14T15:08:29;6.13;;;3.83;;
77262;SDS011;66373;52.334;4.806;2023-03-14T15:10:58;8.52;;;3.97;;
77262;SDS011;66373;52.334;4.806;2023-03-14T15:13:25;11.05;;;3.95;;
77262;SDS011;66373;52.334;4.806;2023-03-14T15:15:52;6.63;;;3.60;;
77262;SDS011;66373;52.334;4.806;2023-03-14T15:18:21;6.05;;;3.85;;
77262;SDS011;66373;52.334;4.806;2023-03-14T15:20:52;11.43;;;4.20;;
77262;SDS011;66373;52.334;4.806;2023-03-14T15:23:20;7.75;;;3.78;;
77262;SDS011;66373;52.334;4.806;2023-03-14T15:25:48;10.95;;;3.95;;
77262;SDS011;66373;52.334;4.806;2023-03-14T15:28:18;10.75;;;3.83;;
77262;SDS011;66373;52.334;4.806;2023-03-14T15:30:47;13.27;;;4.30;;
77262;SDS011;66373;52.334;4.806;2023-03-14T15:33:15;9.02;;;4.38;;